sensor_id;sensor_type;location;lat;lon;timestamp;pressure;altitude;pressure_sealevel;temperature;humidity
39435;BME280;66825;51.880;-0.518;2023-03-21T00:00:58;100265.41;;;16.57;45.71
39435;BME280;66825;51.880;-0.518;2023-03-21T00:03:24;100263.81;;;16.56;45.66
39435;BME280;66825;51.880;-0.518;2023-03-21T00:05:50;100253.31;;;16.49;45.93
39435;BME280;66825;51.880;-0.518;2023-03-21T00:08:22;100250.91;;;16.47;45.77
39435;BME280;66825;51.880;-0.518;2023-03-21T00:10:57;100234.75;;;16.37;45.59
39435;BME280;66825;51.880;-0.518;2023-03-21T00:13:24;100258.66;;;16.54;45.43
39435;BME280;66825;51.880;-0.518;2023-03-21T00:15:51;100262.47;;;16.53;45.58
39435;BME280;66825;51.880;-0.518;2023-03-21T00:18:22;100247.66;;;16.45;45.65
39435;BME280;66825;51.880;-0.518;2023-03-21T00:21:02;100255.72;;;16.50;45.71
39435;BME280;66825;51.880;-0.518;2023-03-21T00:23:29;100248.75;;;16.44;45.49
39435;BME280;66825;51.880;-0.518;2023-03-21T00:25:56;100244.31;;;16.48;45.64
39435;BME280;66825;51.880;-0.518;2023-03-21T00:28:21;100234.28;;;16.49;45.78
39435;BME280;66825;51.880;-0.518;2023-03-21T00:30:47;100245.47;;;16.47;45.86
39435;BME280;66825;51.880;-0.518;2023-03-21T00:33:13;100225.38;;;16.43;45.90
39435;BME280;66825;51.880;-0.518;2023-03-21T00:35:40;100228.31;;;16.47;45.74
39435;BME280;66825;51.880;-0.518;2023-03-21T00:38:09;100226.69;;;16.46;45.66
39435;BME280;66825;51.880;-0.518;2023-03-21T00:40:34;100216.50;;;16.38;45.65
39435;BME280;66825;51.880;-0.518;2023-03-21T00:43:00;100184.22;;;16.17;45.88
39435;BME280;66825;51.880;-0.518;2023-03-21T00:45:25;100222.34;;;16.45;45.51
39435;BME280;66825;51.880;-0.518;2023-03-21T00:47:51;100182.22;;;16.23;45.62
39435;BME280;66825;51.880;-0.518;2023-03-21T00:50:16;100214.50;;;16.43;45.81
39435;BME280;66825;51.880;-0.518;2023-03-21T00:52:42;100211.00;;;16.43;45.65
39435;BME280;66825;51.880;-0.518;2023-03-21T00:55:13;100214.00;;;16.41;45.59
39435;BME280;66825;51.880;-0.518;2023-03-21T00:57:39;100206.97;;;16.40;45.69
39435;BME280;66825;51.880;-0.518;2023-03-21T01:00:06;100203.41;;;16.40;45.53
39435;BME280;66825;51.880;-0.518;2023-03-21T01:02:34;100207.75;;;16.41;45.68
39435;BME280;66825;51.880;-0.518;2023-03-21T01:04:59;100195.56;;;16.38;45.80
39435;BME280;66825;51.880;-0.518;2023-03-21T01:07:25;100198.28;;;16.38;45.51
39435;BME280;66825;51.880;-0.518;2023-03-21T01:09:50;100185.00;;;16.37;45.82
39435;BME280;66825;51.880;-0.518;2023-03-21T01:12:16;100187.50;;;16.33;45.78
39435;BME280;66825;51.880;-0.518;2023-03-21T01:14:41;100123.47;;;15.94;45.57
39435;BME280;66825;51.880;-0.518;2023-03-21T01:17:06;100181.47;;;16.36;45.90
39435;BME280;66825;51.880;-0.518;2023-03-21T01:19:32;100155.06;;;16.23;45.74
39435;BME280;66825;51.880;-0.518;2023-03-21T01:21:58;100152.34;;;16.23;45.88
39435;BME280;66825;51.880;-0.518;2023-03-21T01:24:24;100170.91;;;16.34;45.56
39435;BME280;66825;51.880;-0.518;2023-03-21T01:26:49;100174.72;;;16.33;45.74
39435;BME280;66825;51.880;-0.518;2023-03-21T01:29:15;100163.72;;;16.25;45.65
39435;BME280;66825;51.880;-0.518;2023-03-21T01:31:40;100160.50;;;16.23;45.97
39435;BME280;66825;51.880;-0.518;2023-03-21T01:34:06;100099.75;;;15.80;46.04
39435;BME280;66825;51.880;-0.518;2023-03-21T01:36:31;100162.53;;;16.31;45.77
39435;BME280;66825;51.880;-0.518;2023-03-21T01:38:57;100167.13;;;16.30;45.78
39435;BME280;66825;51.880;-0.518;2023-03-21T01:41:33;100160.91;;;16.30;45.82
39435;BME280;66825;51.880;-0.518;2023-03-21T01:44:00;100159.28;;;16.29;45.73
39435;BME280;66825;51.880;-0.518;2023-03-21T01:46:49;100148.22;;;16.25;45.83
39435;BME280;66825;51.880;-0.518;2023-03-21T01:49:43;100146.09;;;16.22;45.79
39435;BME280;66825;51.880;-0.518;2023-03-21T01:52:13;100150.63;;;16.27;45.71
39435;BME280;66825;51.880;-0.518;2023-03-21T01:54:41;100149.03;;;16.26;45.96
39435;BME280;66825;51.880;-0.518;2023-03-21T01:57:15;100025.81;;;15.50;45.53
39435;BME280;66825;51.880;-0.518;2023-03-21T01:59:44;100094.16;;;15.91;45.68
39435;BME280;66825;51.880;-0.518;2023-03-21T02:02:18;100147.41;;;16.25;45.86
39435;BME280;66825;51.880;-0.518;2023-03-21T02:04:48;100139.53;;;16.23;45.82
39435;BME280;66825;51.880;-0.518;2023-03-21T02:07:21;100136.03;;;16.23;45.57
39435;BME280;66825;51.880;-0.518;2023-03-21T02:09:50;100094.56;;;15.98;45.95
39435;BME280;66825;51.880;-0.518;2023-03-21T02:12:18;100013.63;;;15.48;45.85
39435;BME280;66825;51.880;-0.518;2023-03-21T02:14:46;100137.13;;;16.22;45.69
39435;BME280;66825;51.880;-0.518;2023-03-21T02:17:27;100102.88;;;16.20;45.88
39435;BME280;66825;51.880;-0.518;2023-03-21T02:27:28;100071.94;;;16.02;45.85
39435;BME280;66825;51.880;-0.518;2023-03-21T02:38:51;100080.94;;;16.17;45.79
39435;BME280;66825;51.880;-0.518;2023-03-21T02:41:28;100083.97;;;16.15;45.63
39435;BME280;66825;51.880;-0.518;2023-03-21T02:44:17;100074.19;;;16.14;45.95
39435;BME280;66825;51.880;-0.518;2023-03-21T02:50:14;100075.03;;;16.15;45.99
39435;BME280;66825;51.880;-0.518;2023-03-21T02:52:11;100069.06;;;16.13;45.72
39435;BME280;66825;51.880;-0.518;2023-03-21T02:54:40;100076.41;;;16.12;45.92
39435;BME280;66825;51.880;-0.518;2023-03-21T02:57:08;100047.50;;;16.02;45.94
39435;BME280;66825;51.880;-0.518;2023-03-21T02:59:34;100064.72;;;16.12;45.76
39435;BME280;66825;51.880;-0.518;2023-03-21T03:02:01;100058.50;;;16.11;45.72
39435;BME280;66825;51.880;-0.518;2023-03-21T03:04:27;100054.16;;;16.10;45.69
39435;BME280;66825;51.880;-0.518;2023-03-21T03:07:13;100031.59;;;15.96;45.87
39435;BME280;66825;51.880;-0.518;2023-03-21T03:10:10;100051.72;;;16.09;45.94
39435;BME280;66825;51.880;-0.518;2023-03-21T03:12:54;99944.50;;;15.40;45.75
39435;BME280;66825;51.880;-0.518;2023-03-21T03:18:45;100041.16;;;16.07;46.03
39435;BME280;66825;51.880;-0.518;2023-03-21T03:24:05;100037.66;;;16.07;45.65
39435;BME280;66825;51.880;-0.518;2023-03-21T03:26:46;100035.22;;;16.05;45.97
39435;BME280;66825;51.880;-0.518;2023-03-21T03:29:17;100037.94;;;16.05;45.82
39435;BME280;66825;51.880;-0.518;2023-03-21T03:31:57;99912.13;;;15.30;45.73
39435;BME280;66825;51.880;-0.518;2023-03-21T03:34:31;100019.22;;;16.03;45.71
39435;BME280;66825;51.880;-0.518;2023-03-21T03:37:01;100028.19;;;16.04;45.73
39435;BME280;66825;51.880;-0.518;2023-03-21T03:39:33;100021.16;;;16.03;45.88
39435;BME280;66825;51.880;-0.518;2023-03-21T03:42:13;100011.38;;;16.02;45.99
39435;BME280;66825;51.880;-0.518;2023-03-21T03:44:40;100004.03;;;16.02;45.92
39435;BME280;66825;51.880;-0.518;2023-03-21T03:47:12;99882.34;;;15.24;45.83
39435;BME280;66825;51.880;-0.518;2023-03-21T03:49:46;99995.88;;;16.02;45.98
39435;BME280;66825;51.880;-0.518;2023-03-21T03:52:31;99996.19;;;16.01;45.74
39435;BME280;66825;51.880;-0.518;2023-03-21T03:54:58;99989.94;;;16.00;45.78
39435;BME280;66825;51.880;-0.518;2023-03-21T03:57:25;99989.13;;;16.00;45.84
39435;BME280;66825;51.880;-0.518;2023-03-21T03:59:51;99973.63;;;15.86;45.89
39435;BME280;66825;51.880;-0.518;2023-03-21T04:02:17;99990.22;;;15.99;45.82
39435;BME280;66825;51.880;-0.518;2023-03-21T04:04:44;99992.94;;;15.99;45.93
39435;BME280;66825;51.880;-0.518;2023-03-21T04:07:11;99972.94;;;15.95;46.06
39435;BME280;66825;51.880;-0.518;2023-03-21T04:09:37;99975.34;;;15.96;45.79
39435;BME280;66825;51.880;-0.518;2023-03-21T04:12:02;99974.25;;;15.97;46.06
39435;BME280;66825;51.880;-0.518;2023-03-21T04:14:28;99987.03;;;15.97;45.81
39435;BME280;66825;51.880;-0.518;2023-03-21T04:16:53;99975.34;;;15.96;45.80
39435;BME280;66825;51.880;-0.518;2023-03-21T04:19:19;99989.75;;;15.97;45.84
39435;BME280;66825;51.880;-0.518;2023-03-21T04:21:45;99968.00;;;15.97;45.69
39435;BME280;66825;51.880;-0.518;2023-03-21T04:24:11;99975.34;;;15.96;45.89
39435;BME280;66825;51.880;-0.518;2023-03-21T04:26:39;99890.75;;;15.42;45.84
39435;BME280;66825;51.880;-0.518;2023-03-21T04:29:05;99975.66;;;15.95;45.75
39435;BME280;66825;51.880;-0.518;2023-03-21T04:31:31;99851.81;;;15.19;45.63
39435;BME280;66825;51.880;-0.518;2023-03-21T04:33:59;99979.47;;;15.94;45.74
39435;BME280;66825;51.880;-0.518;2023-03-21T04:36:24;99965.88;;;15.94;45.87
39435;BME280;66825;51.880;-0.518;2023-03-21T04:38:53;99937.97;;;15.74;46.05
39435;BME280;66825;51.880;-0.518;2023-03-21T04:41:19;99955.47;;;15.82;45.76
39435;BME280;66825;51.880;-0.518;2023-03-21T04:43:45;99947.88;;;15.84;45.78
39435;BME280;66825;51.880;-0.518;2023-03-21T04:46:11;99963.47;;;15.92;45.74
39435;BME280;66825;51.880;-0.518;2023-03-21T04:48:37;99961.56;;;15.93;46.01
39435;BME280;66825;51.880;-0.518;2023-03-21T04:51:02;99809.84;;;14.97;45.85
39435;BME280;66825;51.880;-0.518;2023-03-21T04:53:28;99952.09;;;15.90;45.90
39435;BME280;66825;51.880;-0.518;2023-03-21T04:55:53;99942.84;;;15.91;45.98
39435;BME280;66825;51.880;-0.518;2023-03-21T04:58:19;99947.44;;;15.91;45.89
39435;BME280;66825;51.880;-0.518;2023-03-21T05:00:45;99950.16;;;15.91;46.04
39435;BME280;66825;51.880;-0.518;2023-03-21T05:03:11;99937.78;;;15.84;45.81
39435;BME280;66825;51.880;-0.518;2023-03-21T05:05:43;99943.16;;;15.90;45.97
39435;BME280;66825;51.880;-0.518;2023-03-21T05:08:09;99938.81;;;15.88;46.13
39435;BME280;66825;51.880;-0.518;2023-03-21T05:10:34;99938.81;;;15.88;46.10
39435;BME280;66825;51.880;-0.518;2023-03-21T05:13:00;99933.38;;;15.88;45.74
39435;BME280;66825;51.880;-0.518;2023-03-21T05:15:25;99931.78;;;15.87;45.90
39435;BME280;66825;51.880;-0.518;2023-03-21T05:17:51;99914.66;;;15.87;45.83
39435;BME280;66825;51.880;-0.518;2023-03-21T05:20:16;99926.34;;;15.87;45.82
39435;BME280;66825;51.880;-0.518;2023-03-21T05:22:42;99922.81;;;15.87;45.99
39435;BME280;66825;51.880;-0.518;2023-03-21T05:25:11;99897.41;;;15.64;45.83
39435;BME280;66825;51.880;-0.518;2023-03-21T05:27:37;99933.66;;;15.87;45.99
39435;BME280;66825;51.880;-0.518;2023-03-21T05:30:10;99929.38;;;15.86;45.66
39435;BME280;66825;51.880;-0.518;2023-03-21T05:32:36;99927.75;;;15.85;46.26
39435;BME280;66825;51.880;-0.518;2023-03-21T05:35:01;99925.03;;;15.85;46.12
39435;BME280;66825;51.880;-0.518;2023-03-21T05:37:27;99822.66;;;15.24;45.89
39435;BME280;66825;51.880;-0.518;2023-03-21T05:39:52;99917.97;;;15.84;45.88
39435;BME280;66825;51.880;-0.518;2023-03-21T05:42:18;99913.34;;;15.84;45.98
39435;BME280;66825;51.880;-0.518;2023-03-21T05:44:45;99901.53;;;15.75;46.20
39435;BME280;66825;51.880;-0.518;2023-03-21T05:47:15;99910.09;;;15.82;45.78
39435;BME280;66825;51.880;-0.518;2023-03-21T05:49:41;99914.44;;;15.83;45.99
39435;BME280;66825;51.880;-0.518;2023-03-21T05:52:07;99918.22;;;15.82;45.76
39435;BME280;66825;51.880;-0.518;2023-03-21T05:54:33;99861.81;;;15.51;45.94
39435;BME280;66825;51.880;-0.518;2023-03-21T05:56:58;99910.41;;;15.81;45.88
39435;BME280;66825;51.880;-0.518;2023-03-21T05:59:24;99907.47;;;15.77;46.12
39435;BME280;66825;51.880;-0.518;2023-03-21T06:01:49;99908.50;;;15.81;45.98
39435;BME280;66825;51.880;-0.518;2023-03-21T06:04:15;99902.34;;;15.76;46.05
39435;BME280;66825;51.880;-0.518;2023-03-21T06:06:40;99909.59;;;15.80;46.10
39435;BME280;66825;51.880;-0.518;2023-03-21T06:09:06;99900.63;;;15.80;45.85
39435;BME280;66825;51.880;-0.518;2023-03-21T06:11:34;99906.06;;;15.80;46.01
39435;BME280;66825;51.880;-0.518;2023-03-21T06:14:00;99899.00;;;15.79;46.11
39435;BME280;66825;51.880;-0.518;2023-03-21T06:16:26;99899.00;;;15.79;46.08
39435;BME280;66825;51.880;-0.518;2023-03-21T06:18:53;99871.16;;;15.59;46.01
39435;BME280;66825;51.880;-0.518;2023-03-21T06:21:19;99898.22;;;15.78;46.09
39435;BME280;66825;51.880;-0.518;2023-03-21T06:23:45;99882.53;;;15.61;46.21
39435;BME280;66825;51.880;-0.518;2023-03-21T06:26:11;99902.03;;;15.77;46.03
39435;BME280;66825;51.880;-0.518;2023-03-21T06:28:36;99894.59;;;15.69;45.96
39435;BME280;66825;51.880;-0.518;2023-03-21T06:31:02;99913.72;;;15.78;45.81
39435;BME280;66825;51.880;-0.518;2023-03-21T06:33:28;99916.44;;;15.78;45.98
39435;BME280;66825;51.880;-0.518;2023-03-21T06:35:55;99899.81;;;15.65;46.13
39435;BME280;66825;51.880;-0.518;2023-03-21T06:38:21;99915.94;;;15.76;46.02
39435;BME280;66825;51.880;-0.518;2023-03-21T06:40:47;99909.41;;;15.77;45.98
39435;BME280;66825;51.880;-0.518;2023-03-21T06:43:13;99902.75;;;15.69;46.18
39435;BME280;66825;51.880;-0.518;2023-03-21T06:45:40;99922.16;;;15.76;45.89
39435;BME280;66825;51.880;-0.518;2023-03-21T06:48:05;99933.31;;;15.75;46.04
39435;BME280;66825;51.880;-0.518;2023-03-21T06:50:31;99931.41;;;15.75;45.91
39435;BME280;66825;51.880;-0.518;2023-03-21T06:52:56;99917.81;;;15.75;46.04
39435;BME280;66825;51.880;-0.518;2023-03-21T06:55:24;99910.81;;;15.74;46.01
39435;BME280;66825;51.880;-0.518;2023-03-21T06:57:55;99907.28;;;15.73;45.95
39435;BME280;66825;51.880;-0.518;2023-03-21T07:00:22;99920.53;;;15.75;45.92
39435;BME280;66825;51.880;-0.518;2023-03-21T07:02:49;99908.09;;;15.74;45.90
39435;BME280;66825;51.880;-0.518;2023-03-21T07:05:15;99899.94;;;15.74;46.04
39435;BME280;66825;51.880;-0.518;2023-03-21T07:07:41;99880.22;;;15.68;45.92
39435;BME280;66825;51.880;-0.518;2023-03-21T07:10:09;99892.91;;;15.73;46.12
39435;BME280;66825;51.880;-0.518;2023-03-21T07:12:34;99887.47;;;15.73;46.04
39435;BME280;66825;51.880;-0.518;2023-03-21T07:15:05;99890.97;;;15.73;45.67
39435;BME280;66825;51.880;-0.518;2023-03-21T07:17:31;99896.72;;;15.72;46.12
39435;BME280;66825;51.880;-0.518;2023-03-21T07:19:57;99889.66;;;15.71;45.94
39435;BME280;66825;51.880;-0.518;2023-03-21T07:22:23;99789.16;;;15.01;45.92
39435;BME280;66825;51.880;-0.518;2023-03-21T07:24:48;99888.88;;;15.70;46.08
39435;BME280;66825;51.880;-0.518;2023-03-21T07:27:15;99888.06;;;15.70;45.89
39435;BME280;66825;51.880;-0.518;2023-03-21T07:29:40;99888.88;;;15.70;46.14
39435;BME280;66825;51.880;-0.518;2023-03-21T07:32:06;99746.13;;;14.81;46.26
39435;BME280;66825;51.880;-0.518;2023-03-21T07:34:32;99879.59;;;15.71;45.93
39435;BME280;66825;51.880;-0.518;2023-03-21T07:36:58;99890.66;;;15.75;46.22
39435;BME280;66825;51.880;-0.518;2023-03-21T07:39:25;99880.31;;;15.77;46.48
39435;BME280;66825;51.880;-0.518;2023-03-21T07:41:50;99879.41;;;15.82;46.43
39435;BME280;66825;51.880;-0.518;2023-03-21T07:44:16;99875.81;;;15.86;46.42
39435;BME280;66825;51.880;-0.518;2023-03-21T07:46:41;99880.34;;;15.91;46.55
39435;BME280;66825;51.880;-0.518;2023-03-21T07:49:06;99875.63;;;15.97;46.65
39435;BME280;66825;51.880;-0.518;2023-03-21T07:51:34;99890.72;;;16.03;46.15
39435;BME280;66825;51.880;-0.518;2023-03-21T07:54:00;99887.88;;;16.08;46.15
39435;BME280;66825;51.880;-0.518;2023-03-21T07:56:27;99895.94;;;16.13;46.10
39435;BME280;66825;51.880;-0.518;2023-03-21T07:58:53;99881.16;;;16.06;46.05
39435;BME280;66825;51.880;-0.518;2023-03-21T08:01:20;99901.16;;;16.24;45.97
39435;BME280;66825;51.880;-0.518;2023-03-21T08:03:46;99902.16;;;16.28;46.12
39435;BME280;66825;51.880;-0.518;2023-03-21T08:06:12;99903.66;;;16.34;46.07
39435;BME280;66825;51.880;-0.518;2023-03-21T08:08:38;99904.66;;;16.38;45.64
39435;BME280;66825;51.880;-0.518;2023-03-21T08:11:04;99897.50;;;16.42;45.86
39435;BME280;66825;51.880;-0.518;2023-03-21T08:13:31;99902.84;;;16.47;45.68
39435;BME280;66825;51.880;-0.518;2023-03-21T08:15:56;99906.53;;;16.51;45.67
39435;BME280;66825;51.880;-0.518;2023-03-21T08:18:21;99897.88;;;16.49;45.45
39435;BME280;66825;51.880;-0.518;2023-03-21T08:20:51;99869.06;;;16.48;45.63
39435;BME280;66825;51.880;-0.518;2023-03-21T08:23:17;99832.31;;;16.28;45.30
39435;BME280;66825;51.880;-0.518;2023-03-21T08:25:42;99882.41;;;16.73;45.46
39435;BME280;66825;51.880;-0.518;2023-03-21T08:28:08;99877.44;;;16.75;45.53
39435;BME280;66825;51.880;-0.518;2023-03-21T08:30:33;99880.25;;;16.83;45.38
39435;BME280;66825;51.880;-0.518;2023-03-21T08:32:59;99870.16;;;16.84;44.97
39435;BME280;66825;51.880;-0.518;2023-03-21T08:35:25;99885.19;;;16.95;45.38
39435;BME280;66825;51.880;-0.518;2023-03-21T08:37:52;99877.69;;;17.01;45.26
39435;BME280;66825;51.880;-0.518;2023-03-21T08:40:18;99891.19;;;17.06;45.12
39435;BME280;66825;51.880;-0.518;2023-03-21T08:42:45;99880.16;;;17.11;45.13
39435;BME280;66825;51.880;-0.518;2023-03-21T08:45:12;99882.75;;;17.17;44.74
39435;BME280;66825;51.880;-0.518;2023-03-21T08:47:38;99865.16;;;17.23;44.67
39435;BME280;66825;51.880;-0.518;2023-03-21T08:50:05;99864.22;;;17.27;44.95
39435;BME280;66825;51.880;-0.518;2023-03-21T08:52:31;99861.75;;;17.40;46.13
39435;BME280;66825;51.880;-0.518;2023-03-21T08:54:57;99859.06;;;17.49;45.66
39435;BME280;66825;51.880;-0.518;2023-03-21T08:57:23;99862.47;;;17.54;45.69
39435;BME280;66825;51.880;-0.518;2023-03-21T08:59:48;99863.28;;;17.63;45.45
39435;BME280;66825;51.880;-0.518;2023-03-21T09:02:16;99851.59;;;17.72;45.32
39435;BME280;66825;51.880;-0.518;2023-03-21T09:04:42;99843.28;;;17.77;44.95
39435;BME280;66825;51.880;-0.518;2023-03-21T09:07:08;99847.16;;;17.85;45.16
39435;BME280;66825;51.880;-0.518;2023-03-21T09:09:35;99845.91;;;17.91;45.78
39435;BME280;66825;51.880;-0.518;2023-03-21T09:12:02;99796.16;;;17.68;45.13
39435;BME280;66825;51.880;-0.518;2023-03-21T09:14:27;99845.81;;;18.05;45.28
39435;BME280;66825;51.880;-0.518;2023-03-21T09:16:53;99846.44;;;18.10;45.47
39435;BME280;66825;51.880;-0.518;2023-03-21T09:19:18;99854.50;;;18.16;44.73
39435;BME280;66825;51.880;-0.518;2023-03-21T09:21:45;99856.25;;;18.20;45.01
39435;BME280;66825;51.880;-0.518;2023-03-21T09:24:11;99841.81;;;18.20;45.07
39435;BME280;66825;51.880;-0.518;2023-03-21T09:26:37;99871.19;;;18.32;44.99
39435;BME280;66825;51.880;-0.518;2023-03-21T09:29:03;99862.38;;;18.35;45.21
39435;BME280;66825;51.880;-0.518;2023-03-21T09:31:30;99868.28;;;18.37;46.54
39435;BME280;66825;51.880;-0.518;2023-03-21T09:33:56;99858.50;;;18.36;47.09
39435;BME280;66825;51.880;-0.518;2023-03-21T09:36:24;99865.44;;;18.42;46.24
39435;BME280;66825;51.880;-0.518;2023-03-21T09:38:52;99855.31;;;18.42;46.68
39435;BME280;66825;51.880;-0.518;2023-03-21T09:47:29;99843.59;;;18.51;46.69
39435;BME280;66825;51.880;-0.518;2023-03-21T09:50:12;99744.94;;;17.96;46.06
39435;BME280;66825;51.880;-0.518;2023-03-21T09:52:43;99830.47;;;18.53;46.34
39435;BME280;66825;51.880;-0.518;2023-03-21T09:55:30;99839.91;;;18.55;45.90
39435;BME280;66825;51.880;-0.518;2023-03-21T09:58:29;99827.88;;;18.56;45.85
39435;BME280;66825;51.880;-0.518;2023-03-21T10:03:35;99814.56;;;18.46;45.60
39435;BME280;66825;51.880;-0.518;2023-03-21T10:06:10;99826.09;;;18.61;44.96
39435;BME280;66825;51.880;-0.518;2023-03-21T10:08:43;99834.28;;;18.61;45.32
39435;BME280;66825;51.880;-0.518;2023-03-21T10:11:24;99800.75;;;18.42;45.04
39435;BME280;66825;51.880;-0.518;2023-03-21T10:13:55;99782.47;;;18.34;44.84
39435;BME280;66825;51.880;-0.518;2023-03-21T10:16:30;99828.19;;;18.64;44.97
39435;BME280;66825;51.880;-0.518;2023-03-21T10:18:58;99724.28;;;17.95;45.05
39435;BME280;66825;51.880;-0.518;2023-03-21T10:21:27;99825.16;;;18.65;44.90
39435;BME280;66825;51.880;-0.518;2023-03-21T10:23:55;99807.66;;;18.49;45.06
39435;BME280;66825;51.880;-0.518;2023-03-21T10:26:24;99810.06;;;18.59;45.41
39435;BME280;66825;51.880;-0.518;2023-03-21T10:28:54;99825.16;;;18.65;45.27
39435;BME280;66825;51.880;-0.518;2023-03-21T10:31:23;99813.13;;;18.66;45.15
39435;BME280;66825;51.880;-0.518;2023-03-21T10:33:51;99798.03;;;18.69;45.24
39435;BME280;66825;51.880;-0.518;2023-03-21T10:36:25;99798.81;;;18.69;45.21
39435;BME280;66825;51.880;-0.518;2023-03-21T10:39:14;99806.19;;;18.78;44.99
39435;BME280;66825;51.880;-0.518;2023-03-21T10:41:42;99778.75;;;18.65;45.05
39435;BME280;66825;51.880;-0.518;2023-03-21T10:44:13;99803.94;;;18.80;44.82
39435;BME280;66825;51.880;-0.518;2023-03-21T10:46:54;99801.22;;;18.80;44.76
39435;BME280;66825;51.880;-0.518;2023-03-21T10:49:20;99794.16;;;18.70;44.63
39435;BME280;66825;51.880;-0.518;2023-03-21T10:51:48;99789.66;;;18.74;44.69
39435;BME280;66825;51.880;-0.518;2023-03-21T10:54:18;99795.25;;;18.78;44.71
39435;BME280;66825;51.880;-0.518;2023-03-21T10:56:56;99796.88;;;18.79;44.51
39435;BME280;66825;51.880;-0.518;2023-03-21T10:59:24;99673.44;;;17.99;45.16
39435;BME280;66825;51.880;-0.518;2023-03-21T11:01:52;99793.34;;;18.78;45.54
39435;BME280;66825;51.880;-0.518;2023-03-21T11:04:28;99795.41;;;18.81;45.59
39435;BME280;66825;51.880;-0.518;2023-03-21T11:06:57;99784.19;;;18.83;45.00
39435;BME280;66825;51.880;-0.518;2023-03-21T11:09:26;99756.16;;;18.65;44.79
39435;BME280;66825;51.880;-0.518;2023-03-21T11:12:11;99783.88;;;18.84;45.30
39435;BME280;66825;51.880;-0.518;2023-03-21T11:14:46;99764.13;;;18.79;45.86
39435;BME280;66825;51.880;-0.518;2023-03-21T11:17:23;99775.16;;;18.91;45.58
39435;BME280;66825;51.880;-0.518;2023-03-21T11:19:58;99776.50;;;18.94;45.18
39435;BME280;66825;51.880;-0.518;2023-03-21T11:22:28;99781.78;;;18.99;45.31
39435;BME280;66825;51.880;-0.518;2023-03-21T11:25:00;99772.91;;;19.02;45.28
39435;BME280;66825;51.880;-0.518;2023-03-21T11:27:28;99775.16;;;19.09;44.99
39435;BME280;66825;51.880;-0.518;2023-03-21T11:29:55;99776.09;;;19.13;44.94
39435;BME280;66825;51.880;-0.518;2023-03-21T11:32:34;99766.47;;;19.15;44.99
39435;BME280;66825;51.880;-0.518;2023-03-21T11:35:06;99774.31;;;19.17;44.66
39435;BME280;66825;51.880;-0.518;2023-03-21T11:37:43;99771.13;;;19.15;44.89
39435;BME280;66825;51.880;-0.518;2023-03-21T11:40:23;99774.31;;;19.17;44.72
39435;BME280;66825;51.880;-0.518;2023-03-21T11:43:01;99783.00;;;19.19;45.17
39435;BME280;66825;51.880;-0.518;2023-03-21T11:45:32;99789.25;;;19.19;45.26
39435;BME280;66825;51.880;-0.518;2023-03-21T11:48:00;99780.13;;;19.15;45.08
39435;BME280;66825;51.880;-0.518;2023-03-21T11:50:42;99791.16;;;19.28;44.97
39435;BME280;66825;51.880;-0.518;2023-03-21T11:53:36;99768.88;;;19.17;44.82
39435;BME280;66825;51.880;-0.518;2023-03-21T11:56:24;99795.63;;;19.32;44.72
39435;BME280;66825;51.880;-0.518;2023-03-21T12:01:36;99791.63;;;19.30;44.88
39435;BME280;66825;51.880;-0.518;2023-03-21T12:13:18;99785.97;;;19.35;44.66
39435;BME280;66825;51.880;-0.518;2023-03-21T12:19:07;99775.53;;;19.37;44.43
39435;BME280;66825;51.880;-0.518;2023-03-21T12:24:21;99764.13;;;19.35;44.44
39435;BME280;66825;51.880;-0.518;2023-03-21T12:27:09;99757.88;;;19.34;44.30
39435;BME280;66825;51.880;-0.518;2023-03-21T12:37:42;99768.50;;;19.27;44.13
39435;BME280;66825;51.880;-0.518;2023-03-21T12:40:27;99766.09;;;19.26;44.18
39435;BME280;66825;51.880;-0.518;2023-03-21T12:43:25;99746.38;;;19.20;44.50
39435;BME280;66825;51.880;-0.518;2023-03-21T12:46:08;99757.91;;;19.26;44.11
39435;BME280;66825;51.880;-0.518;2023-03-21T12:48:56;99752.13;;;19.27;44.41
39435;BME280;66825;51.880;-0.518;2023-03-21T12:51:28;99755.78;;;19.31;44.59
39435;BME280;66825;51.880;-0.518;2023-03-21T12:57:06;99741.63;;;19.38;44.27
39435;BME280;66825;51.880;-0.518;2023-03-21T12:59:38;99740.81;;;19.38;44.14
39435;BME280;66825;51.880;-0.518;2023-03-21T13:02:39;99738.91;;;19.38;44.24
39435;BME280;66825;51.880;-0.518;2023-03-21T13:05:19;99721.69;;;19.38;44.21
39435;BME280;66825;51.880;-0.518;2023-03-21T13:07:53;99725.56;;;19.36;44.17
39435;BME280;66825;51.880;-0.518;2023-03-21T13:10:21;99722.03;;;19.36;44.22
39435;BME280;66825;51.880;-0.518;2023-03-21T13:15:57;99716.56;;;19.36;44.36
39435;BME280;66825;51.880;-0.518;2023-03-21T13:20:59;99713.84;;;19.36;44.30
39435;BME280;66825;51.880;-0.518;2023-03-21T13:23:32;99710.28;;;19.35;44.30
39435;BME280;66825;51.880;-0.518;2023-03-21T13:25:58;99708.72;;;19.34;44.35
39435;BME280;66825;51.880;-0.518;2023-03-21T13:28:28;99696.84;;;19.30;44.26
39435;BME280;66825;51.880;-0.518;2023-03-21T13:31:33;99703.25;;;19.34;44.27
39435;BME280;66825;51.880;-0.518;2023-03-21T13:34:02;99712.22;;;19.35;44.59
39435;BME280;66825;51.880;-0.518;2023-03-21T13:36:34;99714.97;;;19.35;44.73
39435;BME280;66825;51.880;-0.518;2023-03-21T13:39:04;99717.03;;;19.38;45.31
39435;BME280;66825;51.880;-0.518;2023-03-21T13:41:33;99713.63;;;19.41;45.24
39435;BME280;66825;51.880;-0.518;2023-03-21T13:56:47;99730.06;;;19.62;44.61
39435;BME280;66825;51.880;-0.518;2023-03-21T14:04:55;99717.34;;;19.66;44.65
39435;BME280;66825;51.880;-0.518;2023-03-21T14:07:34;99713.47;;;19.67;44.59
39435;BME280;66825;51.880;-0.518;2023-03-21T14:12:43;99595.19;;;18.95;44.52
39435;BME280;66825;51.880;-0.518;2023-03-21T14:15:30;99702.88;;;19.66;44.76
39435;BME280;66825;51.880;-0.518;2023-03-21T14:18:00;99702.75;;;19.62;44.67
39435;BME280;66825;51.880;-0.518;2023-03-21T14:20:32;99711.53;;;19.68;44.56
39435;BME280;66825;51.880;-0.518;2023-03-21T14:22:58;99718.59;;;19.69;44.40
39435;BME280;66825;51.880;-0.518;2023-03-21T14:25:31;99689.13;;;19.53;44.35
39435;BME280;66825;51.880;-0.518;2023-03-21T14:27:59;99712.34;;;19.68;44.32
39435;BME280;66825;51.880;-0.518;2023-03-21T14:30:32;99706.88;;;19.68;44.35